Time;durP1;ratioP1;P1;durP2;ratioP2;P2;SDS_P1;SDS_P2;PMS_P1;PMS_P2;Temp;Humidity;BMP_temperature;BMP_pressure;BME280_temperature;BME280_humidity;BME280_pressure;Samples;Min_cycle;Max_cycle;Signal;HPM_P1;HPM_P2
2022/11/27 00:00:31;;;;;;;13.30;9.53;;;3.30;99.90;;;;;;5054755;28;20232;-56
2022/11/27 00:03:00;;;;;;;18.13;11.23;;;3.30;99.90;;;;;;5055010;28;20227;-56
2022/11/27 00:05:26;;;;;;;13.97;9.97;;;3.30;99.90;;;;;;5054789;28;20300;-55
2022/11/27 00:07:53;;;;;;;16.50;10.43;;;3.20;99.90;;;;;;5054677;28;20643;-55
2022/11/27 00:10:20;;;;;;;19.27;9.70;;;3.10;99.90;;;;;;5054479;28;20217;-58
2022/11/27 00:12:47;;;;;;;15.83;9.33;;;2.90;99.90;;;;;;5054682;28;20230;-55
2022/11/27 00:15:14;;;;;;;17.10;10.60;;;2.70;99.90;;;;;;5054643;28;20573;-56
2022/11/27 00:17:41;;;;;;;17.40;9.53;;;2.70;99.90;;;;;;5054465;28;20692;-54
2022/11/27 00:20:10;;;;;;;14.87;9.50;;;2.70;99.90;;;;;;5054752;28;20301;-57
2022/11/27 00:22:36;;;;;;;14.00;9.40;;;2.70;99.90;;;;;;5054406;28;20775;-56
2022/11/27 00:25:04;;;;;;;17.37;9.53;;;2.70;99.90;;;;;;5053746;28;20232;-55
2022/11/27 00:27:30;;;;;;;18.70;10.70;;;2.70;99.90;;;;;;5054728;28;20205;-55
2022/11/27 00:29:57;;;;;;;17.83;10.47;;;2.70;99.90;;;;;;5054550;28;20205;-57
2022/11/27 00:32:24;;;;;;;20.50;11.20;;;2.80;99.90;;;;;;5054233;28;20232;-55
2022/11/27 00:34:51;;;;;;;19.50;11.57;;;3.30;99.90;;;;;;5054600;28;20217;-56
2022/11/27 00:37:19;;;;;;;16.93;11.37;;;3.00;99.90;;;;;;5053916;28;20661;-56
2022/11/27 00:39:47;;;;;;;15.30;10.23;;;3.00;99.90;;;;;;5054491;28;20300;-56
2022/11/27 00:42:14;;;;;;;15.10;11.53;;;2.90;99.90;;;;;;5054561;28;20716;-57
2022/11/27 00:44:41;;;;;;;18.97;11.37;;;3.10;99.90;;;;;;5054166;28;20596;-55
2022/11/27 00:47:08;;;;;;;14.93;11.27;;;3.20;99.90;;;;;;5053742;28;20212;-55
2022/11/27 00:49:34;;;;;;;14.67;10.50;;;3.20;99.90;;;;;;5054820;28;20213;-56
2022/11/27 00:52:01;;;;;;;15.97;10.40;;;3.10;99.90;;;;;;5054210;28;20646;-55
2022/11/27 00:54:29;;;;;;;18.90;10.83;;;3.00;99.90;;;;;;5054568;28;20201;-56
2022/11/27 00:56:56;;;;;;;15.83;10.40;;;2.90;99.90;;;;;;5054180;28;20213;-56
2022/11/27 00:59:23;;;;;;;17.97;10.63;;;2.90;99.90;;;;;;5054465;28;20213;-55
2022/11/27 01:01:50;;;;;;;14.80;10.00;;;2.90;99.90;;;;;;5054189;28;20213;-55
2022/11/27 01:04:17;;;;;;;17.50;10.17;;;2.90;99.90;;;;;;5054059;28;20326;-54
2022/11/27 01:06:44;;;;;;;15.57;10.70;;;2.80;99.90;;;;;;5052851;28;20201;-55
2022/11/27 01:09:12;;;;;;;19.57;10.83;;;2.80;99.90;;;;;;5053771;28;20201;-55
2022/11/27 01:11:41;;;;;;;17.87;11.07;;;2.70;99.90;;;;;;5054046;28;20237;-57
2022/11/27 01:14:12;;;;;;;19.47;10.07;;;2.80;99.90;;;;;;5053666;28;20198;-56
2022/11/27 01:16:39;;;;;;;15.93;10.13;;;2.80;99.90;;;;;;5053152;28;20259;-55
2022/11/27 01:19:06;;;;;;;17.87;11.30;;;2.90;99.90;;;;;;5053636;28;20690;-55
2022/11/27 01:21:34;;;;;;;14.57;10.47;;;2.90;99.90;;;;;;5053773;28;20296;-56
2022/11/27 01:24:02;;;;;;;19.23;11.03;;;2.90;99.90;;;;;;5053496;28;20271;-57
2022/11/27 01:26:29;;;;;;;19.03;11.30;;;2.90;99.90;;;;;;5053106;28;20206;-57
2022/11/27 01:28:58;;;;;;;14.73;9.83;;;2.90;99.90;;;;;;5053766;28;20206;-55
2022/11/27 01:31:26;;;;;;;16.13;9.60;;;2.80;99.90;;;;;;5052950;28;20205;-54
2022/11/27 01:33:55;;;;;;;18.77;10.87;;;2.80;99.90;;;;;;5053058;28;20935;-55
2022/11/27 01:36:22;;;;;;;15.70;9.97;;;3.00;99.90;;;;;;5052440;28;20205;-54
2022/11/27 01:38:49;;;;;;;15.20;10.03;;;3.00;99.90;;;;;;5053029;28;20210;-54
2022/11/27 01:41:18;;;;;;;16.17;11.00;;;3.00;99.90;;;;;;5052874;28;20704;-55
2022/11/27 01:43:47;;;;;;;15.03;10.07;;;3.00;99.90;;;;;;5052690;28;20233;-54
2022/11/27 01:46:28;;;;;;;17.77;10.60;;;2.90;99.90;;;;;;5052549;28;20233;-55
2022/11/27 01:48:59;;;;;;;17.47;10.13;;;2.80;99.90;;;;;;5053005;28;20651;-55
2022/11/27 01:51:26;;;;;;;15.63;9.93;;;2.90;99.90;;;;;;5053397;28;20210;-55
2022/11/27 01:53:54;;;;;;;13.83;10.13;;;2.90;99.90;;;;;;5053219;28;20221;-55
2022/11/27 01:56:22;;;;;;;17.83;10.50;;;2.90;99.90;;;;;;5052662;28;20206;-55
2022/11/27 01:58:50;;;;;;;18.80;11.13;;;2.90;99.90;;;;;;5053248;28;20240;-55
2022/11/27 02:01:18;;;;;;;14.50;10.27;;;2.90;99.90;;;;;;5053282;28;20217;-55
2022/11/27 02:03:45;;;;;;;16.90;11.20;;;2.90;99.90;;;;;;5053128;28;20316;-55
2022/11/27 02:06:13;;;;;;;16.27;11.50;;;2.90;99.90;;;;;;5052639;28;20190;-55
2022/11/27 02:08:40;;;;;;;17.00;10.80;;;2.90;99.90;;;;;;5053288;28;20208;-54
2022/11/27 02:11:13;;;;;;;17.30;9.93;;;2.90;99.90;;;;;;5053202;28;20205;-56
2022/11/27 02:13:45;;;;;;;17.17;9.83;;;2.90;99.90;;;;;;5053623;28;20720;-54
2022/11/27 02:16:18;;;;;;;15.77;10.23;;;3.00;99.90;;;;;;5053188;28;20205;-55
2022/11/27 02:18:54;;;;;;;15.50;10.50;;;3.00;99.90;;;;;;5052707;28;20721;-54
2022/11/27 02:21:30;;;;;;;15.50;9.80;;;3.00;99.90;;;;;;5052721;28;20209;-55
2022/11/27 02:24:25;;;;;;;16.03;10.60;;;3.00;99.90;;;;;;5052932;28;20241;-55
2022/11/27 02:27:25;;;;;;;17.60;10.57;;;3.00;99.90;;;;;;5052781;28;20210;-55
2022/11/27 02:29:59;;;;;;;13.03;9.57;;;3.10;99.90;;;;;;5053237;28;20209;-55
2022/11/27 02:32:29;;;;;;;15.07;9.93;;;3.10;99.90;;;;;;5053346;28;20672;-55
2022/11/27 02:35:01;;;;;;;15.63;11.10;;;3.00;99.90;;;;;;5053712;28;20288;-55
2022/11/27 02:37:35;;;;;;;16.80;10.90;;;3.00;99.90;;;;;;5052498;28;20216;-55
2022/11/27 02:40:05;;;;;;;18.73;11.27;;;2.90;99.90;;;;;;5052287;28;20300;-55
2022/11/27 02:42:36;;;;;;;13.67;10.60;;;2.80;99.90;;;;;;5052457;28;20233;-55
2022/11/27 02:45:09;;;;;;;16.53;10.97;;;2.80;99.90;;;;;;5052477;28;20222;-55
2022/11/27 02:47:38;;;;;;;16.03;10.27;;;2.70;99.90;;;;;;5052807;28;20355;-54
2022/11/27 02:50:09;;;;;;;14.47;10.67;;;2.70;99.90;;;;;;5052622;28;20205;-55
2022/11/27 02:52:37;;;;;;;16.23;11.23;;;2.60;99.90;;;;;;5052487;28;20226;-55
2022/11/27 02:55:08;;;;;;;16.73;10.47;;;2.60;99.90;;;;;;5052905;28;20206;-55
2022/11/27 02:57:37;;;;;;;14.80;10.53;;;2.50;99.90;;;;;;5052532;28;20327;-55
2022/11/27 03:00:06;;;;;;;16.87;10.63;;;2.50;99.90;;;;;;5052607;28;20201;-55
2022/11/27 03:02:39;;;;;;;16.00;10.57;;;2.50;99.90;;;;;;5052735;28;20228;-55
2022/11/27 03:05:08;;;;;;;17.50;11.00;;;2.50;99.90;;;;;;5052721;28;20589;-55
2022/11/27 03:07:40;;;;;;;16.63;11.17;;;2.50;99.90;;;;;;5053318;28;20205;-54
2022/11/27 03:10:13;;;;;;;16.87;10.37;;;2.50;99.90;;;;;;5052388;28;20257;-55
2022/11/27 03:12:40;;;;;;;14.70;10.13;;;2.50;99.90;;;;;;5052680;28;20601;-55
2022/11/27 03:15:10;;;;;;;14.57;10.63;;;2.50;99.90;;;;;;5052430;28;20641;-55
2022/11/27 03:17:49;;;;;;;16.07;10.33;;;2.50;99.90;;;;;;5052398;28;20205;-55
2022/11/27 03:20:21;;;;;;;15.47;9.40;;;2.40;99.90;;;;;;5052532;28;20301;-55
2022/11/27 03:22:48;;;;;;;12.70;10.00;;;2.50;99.90;;;;;;5052027;28;20237;-55
2022/11/27 03:25:15;;;;;;;13.70;10.27;;;2.50;99.90;;;;;;5051512;28;20259;-54
2022/11/27 03:27:48;;;;;;;12.23;9.33;;;2.50;99.90;;;;;;5051821;28;20320;-55
2022/11/27 03:30:17;;;;;;;12.50;9.50;;;2.50;99.90;;;;;;5053971;28;20297;-55
2022/11/27 03:32:44;;;;;;;14.20;10.03;;;2.50;99.90;;;;;;5055578;28;20230;-55
2022/11/27 03:35:12;;;;;;;16.57;10.80;;;2.50;99.90;;;;;;5055163;28;20198;-55
2022/11/27 03:37:39;;;;;;;13.70;9.87;;;2.50;99.90;;;;;;5055272;28;20543;-55
2022/11/27 03:40:08;;;;;;;16.97;9.57;;;2.50;99.90;;;;;;5055321;28;20213;-55
2022/11/27 03:42:43;;;;;;;16.97;9.53;;;2.50;99.90;;;;;;5055289;28;20225;-55
2022/11/27 03:45:23;;;;;;;11.03;9.47;;;2.40;99.90;;;;;;5055071;28;20236;-55
2022/11/27 03:48:03;;;;;;;15.83;10.03;;;2.40;99.90;;;;;;5055382;28;20228;-55
2022/11/27 03:50:38;;;;;;;14.40;9.33;;;2.30;99.90;;;;;;5055016;28;20205;-55
2022/11/27 03:53:12;;;;;;;13.30;9.20;;;2.20;99.90;;;;;;5054926;28;20251;-55
2022/11/27 03:55:49;;;;;;;12.20;8.97;;;2.10;99.90;;;;;;5054648;28;20210;-55
2022/11/27 03:58:21;;;;;;;12.47;8.87;;;2.10;99.90;;;;;;5054911;28;20247;-55
2022/11/27 04:00:51;;;;;;;12.70;9.20;;;2.10;99.90;;;;;;5054635;28;20405;-55
2022/11/27 04:03:24;;;;;;;13.57;9.03;;;2.20;99.90;;;;;;5054695;28;20616;-55
2022/11/27 04:05:51;;;;;;;12.93;9.33;;;2.20;99.90;;;;;;5054147;28;20218;-55
2022/11/27 04:08:18;;;;;;;11.27;8.33;;;2.20;99.90;;;;;;5054532;28;20247;-55
2022/11/27 04:10:45;;;;;;;12.00;8.53;;;2.20;99.90;;;;;;5054768;28;20201;-55
2022/11/27 04:13:12;;;;;;;11.57;8.53;;;2.20;99.90;;;;;;5054576;28;20313;-55
2022/11/27 04:15:39;;;;;;;10.27;8.53;;;2.10;99.90;;;;;;5054043;28;20228;-55
2022/11/27 04:18:07;;;;;;;11.83;8.63;;;2.10;99.90;;;;;;5054171;28;20205;-55
2022/11/27 04:20:34;;;;;;;10.73;9.40;;;2.10;99.90;;;;;;5054167;28;20271;-55
2022/11/27 04:23:01;;;;;;;10.43;8.63;;;2.10;99.90;;;;;;5053952;28;20736;-55
2022/11/27 04:25:28;;;;;;;11.37;7.20;;;2.10;99.90;;;;;;5053928;28;20233;-55
2022/11/27 04:27:54;;;;;;;9.73;8.23;;;2.10;99.90;;;;;;5054121;28;20201;-55
2022/11/27 04:30:21;;;;;;;9.00;8.03;;;2.10;99.90;;;;;;5054294;28;20212;-55
2022/11/27 04:32:48;;;;;;;9.40;8.40;;;2.10;99.90;;;;;;5053980;28;20659;-55
2022/11/27 04:35:16;;;;;;;10.73;7.70;;;2.10;99.90;;;;;;5054326;28;20197;-55
2022/11/27 04:37:43;;;;;;;10.20;8.43;;;2.10;99.90;;;;;;5054185;28;20201;-56
2022/11/27 04:40:11;;;;;;;10.33;8.17;;;2.00;99.90;;;;;;5053909;28;20212;-55
2022/11/27 04:42:38;;;;;;;10.03;7.97;;;2.00;99.90;;;;;;5053022;28;20316;-55
2022/11/27 04:45:06;;;;;;;10.77;8.87;;;2.00;99.90;;;;;;5053633;28;20408;-56
2022/11/27 04:47:33;;;;;;;11.57;8.70;;;2.00;99.90;;;;;;5053251;28;20249;-55
2022/11/27 04:50:00;;;;;;;10.73;8.07;;;2.00;99.90;;;;;;5053754;28;20305;-55
2022/11/27 04:52:28;;;;;;;11.13;8.57;;;2.00;99.90;;;;;;5053646;28;20225;-55
2022/11/27 04:54:55;;;;;;;10.03;8.03;;;2.00;99.90;;;;;;5053981;28;20201;-56
2022/11/27 04:57:21;;;;;;;13.03;7.70;;;2.00;99.90;;;;;;5053034;28;20209;-56
2022/11/27 04:59:48;;;;;;;11.20;8.50;;;2.00;99.90;;;;;;5053586;28;20231;-55
2022/11/27 05:02:15;;;;;;;9.93;7.93;;;2.00;99.90;;;;;;5053419;28;20711;-55
2022/11/27 05:04:42;;;;;;;12.10;7.83;;;2.00;99.90;;;;;;5053548;28;20687;-55
2022/11/27 05:07:09;;;;;;;13.13;8.40;;;2.00;99.90;;;;;;5053261;28;20220;-55
2022/11/27 05:09:37;;;;;;;12.77;8.33;;;2.00;99.90;;;;;;5053509;28;20300;-55
2022/11/27 05:12:04;;;;;;;13.50;9.33;;;2.00;99.90;;;;;;5053183;28;20233;-55
2022/11/27 05:14:31;;;;;;;13.37;8.73;;;2.10;99.90;;;;;;5053188;28;20202;-55
2022/11/27 05:16:59;;;;;;;22.83;13.10;;;2.10;99.90;;;;;;5052913;28;20300;-55
2022/11/27 05:19:28;;;;;;;22.13;12.40;;;2.00;99.90;;;;;;5053222;28;20205;-56
2022/11/27 05:21:56;;;;;;;23.87;12.87;;;2.10;99.90;;;;;;5053039;28;20332;-55
2022/11/27 05:24:25;;;;;;;26.37;15.60;;;2.10;99.90;;;;;;5053204;28;20600;-55
2022/11/27 05:26:53;;;;;;;24.03;12.50;;;2.10;99.90;;;;;;5052628;28;20232;-55
2022/11/27 05:29:20;;;;;;;17.50;10.67;;;2.10;99.90;;;;;;5053192;28;20209;-55
2022/11/27 05:31:47;;;;;;;21.43;12.37;;;2.10;99.90;;;;;;5052978;28;20703;-55
2022/11/27 05:34:14;;;;;;;21.00;11.73;;;2.10;99.90;;;;;;5053250;28;20201;-56
2022/11/27 05:36:41;;;;;;;16.70;10.37;;;2.10;99.90;;;;;;5052617;28;20197;-55
2022/11/27 05:39:09;;;;;;;19.07;10.90;;;2.20;99.90;;;;;;5053074;28;20318;-56
2022/11/27 05:41:38;;;;;;;12.97;7.77;;;2.20;99.90;;;;;;5052997;28;20212;-55
2022/11/27 05:44:06;;;;;;;10.60;6.80;;;2.20;99.90;;;;;;5052714;28;20721;-56
2022/11/27 05:46:33;;;;;;;10.53;7.80;;;2.30;99.90;;;;;;5052585;28;20236;-55
2022/11/27 05:49:00;;;;;;;11.13;7.47;;;2.30;99.90;;;;;;5052813;28;20208;-55
2022/11/27 05:51:27;;;;;;;11.07;7.57;;;2.30;99.90;;;;;;5052847;28;20208;-55
2022/11/27 05:53:54;;;;;;;10.70;7.30;;;2.30;99.90;;;;;;5052534;28;20316;-55
2022/11/27 05:56:21;;;;;;;11.20;7.23;;;2.20;99.90;;;;;;5052135;28;20510;-55
2022/11/27 05:58:50;;;;;;;8.07;7.07;;;2.10;99.90;;;;;;5052681;28;20587;-55
2022/11/27 06:01:19;;;;;;;10.30;6.83;;;2.10;99.90;;;;;;5052755;28;20201;-55
2022/11/27 06:03:46;;;;;;;7.87;7.07;;;2.00;99.90;;;;;;5052412;28;20226;-55
2022/11/27 06:06:15;;;;;;;10.90;6.80;;;1.90;99.90;;;;;;5051977;28;20224;-55
2022/11/27 06:08:43;;;;;;;7.47;6.43;;;1.80;99.90;;;;;;5051938;28;20239;-55
2022/11/27 06:11:11;;;;;;;8.60;6.83;;;1.70;99.90;;;;;;5052540;28;20205;-55
2022/11/27 06:13:38;;;;;;;9.63;7.10;;;1.70;99.90;;;;;;5052384;28;20263;-55
2022/11/27 06:16:07;;;;;;;8.50;7.10;;;1.70;99.90;;;;;;5051681;28;20579;-55
2022/11/27 06:18:35;;;;;;;10.70;6.97;;;1.60;99.90;;;;;;5052198;28;20241;-55
2022/11/27 06:21:06;;;;;;;8.07;6.83;;;1.60;99.90;;;;;;5052069;28;20592;-55
2022/11/27 06:23:33;;;;;;;10.10;7.17;;;1.50;99.90;;;;;;5051966;28;20264;-55
2022/11/27 06:26:09;;;;;;;9.97;7.67;;;1.50;99.90;;;;;;5051721;28;20225;-55
2022/11/27 06:28:36;;;;;;;10.57;7.90;;;1.50;99.90;;;;;;5052392;28;20217;-56
2022/11/27 06:31:06;;;;;;;14.43;9.03;;;1.50;99.90;;;;;;5052318;28;20206;-55
2022/11/27 06:33:33;;;;;;;12.43;8.60;;;1.50;99.90;;;;;;5052336;28;20225;-56
2022/11/27 06:36:01;;;;;;;12.03;8.27;;;1.50;99.90;;;;;;5051731;28;20292;-56
2022/11/27 06:38:28;;;;;;;12.30;8.57;;;1.60;99.90;;;;;;5052187;28;20292;-57
2022/11/27 06:40:55;;;;;;;9.87;7.50;;;1.60;99.90;;;;;;5052144;28;20206;-56
2022/11/27 06:43:22;;;;;;;9.53;7.13;;;1.60;99.90;;;;;;5051881;28;20230;-57
2022/11/27 06:45:55;;;;;;;9.43;7.27;;;1.60;99.90;;;;;;5051439;28;20571;-56
2022/11/27 06:48:22;;;;;;;10.03;7.00;;;1.60;99.90;;;;;;5052119;28;20193;-56
2022/11/27 06:50:49;;;;;;;9.83;7.53;;;1.60;99.90;;;;;;5051416;28;20216;-56
2022/11/27 06:53:17;;;;;;;9.17;6.97;;;1.60;99.90;;;;;;5051724;28;20227;-56
2022/11/27 06:55:44;;;;;;;7.70;6.67;;;1.60;99.90;;;;;;5051365;28;20233;-56
2022/11/27 06:58:11;;;;;;;9.03;7.20;;;1.60;99.90;;;;;;5052003;28;20217;-56
2022/11/27 07:00:38;;;;;;;14.07;10.43;;;1.60;99.90;;;;;;5051693;28;20210;-55
2022/11/27 07:03:05;;;;;;;11.20;7.93;;;1.60;99.90;;;;;;5052010;28;20701;-56
2022/11/27 07:05:32;;;;;;;12.27;7.70;;;1.60;99.90;;;;;;5053410;28;20256;-56
2022/11/27 07:07:59;;;;;;;10.60;7.80;;;1.70;99.90;;;;;;5055978;28;20209;-56
2022/11/27 07:10:27;;;;;;;7.37;6.20;;;1.70;99.90;;;;;;5055862;28;20215;-56
2022/11/27 07:12:54;;;;;;;12.13;8.70;;;1.80;99.90;;;;;;5055676;28;20229;-56
2022/11/27 07:15:21;;;;;;;7.70;6.37;;;1.70;99.90;;;;;;5055499;28;20205;-56
2022/11/27 07:17:47;;;;;;;8.73;6.00;;;1.80;99.90;;;;;;5055333;28;20205;-56
2022/11/27 07:20:14;;;;;;;30.23;19.47;;;1.80;99.90;;;;;;5055551;28;20205;-56
2022/11/27 07:22:41;;;;;;;9.53;6.53;;;1.90;99.90;;;;;;5055858;28;20237;-56
2022/11/27 07:25:08;;;;;;;8.13;6.70;;;2.00;99.90;;;;;;5055850;28;20532;-56
2022/11/27 07:27:36;;;;;;;7.53;6.23;;;2.10;99.90;;;;;;5055063;28;20209;-56
2022/11/27 07:30:03;;;;;;;7.90;6.40;;;2.10;99.90;;;;;;5055443;28;20578;-56
2022/11/27 07:32:31;;;;;;;9.73;6.00;;;2.20;99.90;;;;;;5055357;28;20312;-56
2022/11/27 07:34:58;;;;;;;8.73;6.20;;;2.30;99.90;;;;;;5055701;28;20305;-56
2022/11/27 07:37:25;;;;;;;9.43;6.57;;;2.40;99.90;;;;;;5054853;28;20205;-56
2022/11/27 07:39:51;;;;;;;9.17;6.60;;;2.50;99.90;;;;;;5055549;28;20569;-57
2022/11/27 07:42:18;;;;;;;8.20;5.83;;;2.50;99.90;;;;;;5055094;28;20221;-60
2022/11/27 07:44:46;;;;;;;9.13;7.03;;;2.60;99.90;;;;;;5055361;28;20202;-56
2022/11/27 07:47:13;;;;;;;12.40;7.97;;;2.70;99.90;;;;;;5054473;28;20236;-55
2022/11/27 07:49:40;;;;;;;8.87;6.93;;;2.80;99.90;;;;;;5054956;28;20263;-54
2022/11/27 07:52:07;;;;;;;10.33;7.07;;;2.90;99.90;;;;;;5054789;28;20307;-55
2022/11/27 07:54:35;;;;;;;9.20;6.57;;;2.90;99.90;;;;;;5054764;28;20214;-54
2022/11/27 07:57:01;;;;;;;7.87;6.67;;;3.10;99.90;;;;;;5054313;28;20198;-54
2022/11/27 07:59:28;;;;;;;11.77;7.70;;;3.20;99.90;;;;;;5054599;28;20754;-54
2022/11/27 08:01:56;;;;;;;12.10;8.30;;;3.40;99.90;;;;;;5054648;28;20316;-54
2022/11/27 08:04:23;;;;;;;11.13;8.90;;;3.60;99.90;;;;;;5055072;28;20206;-54
2022/11/27 08:06:50;;;;;;;11.00;7.93;;;3.70;99.90;;;;;;5054025;28;20228;-54
2022/11/27 08:09:17;;;;;;;12.87;7.63;;;3.80;99.90;;;;;;5054617;28;20206;-54
2022/11/27 08:11:43;;;;;;;10.47;7.27;;;3.90;99.90;;;;;;5054455;28;20673;-54
2022/11/27 08:14:12;;;;;;;11.27;7.07;;;4.00;99.90;;;;;;5054672;28;20210;-54
2022/11/27 08:16:40;;;;;;;8.93;6.37;;;4.10;99.90;;;;;;5052795;28;20648;-54
2022/11/27 08:19:09;;;;;;;10.40;6.20;;;4.00;99.90;;;;;;5054640;28;20309;-54
2022/11/27 08:21:36;;;;;;;8.23;6.00;;;4.00;99.90;;;;;;5054924;28;20586;-54
2022/11/27 08:24:03;;;;;;;9.87;6.07;;;3.90;99.90;;;;;;5054014;28;20244;-59
2022/11/27 08:26:30;;;;;;;14.27;7.80;;;3.90;99.90;;;;;;5053849;28;20241;-54
2022/11/27 08:28:57;;;;;;;11.47;8.90;;;4.00;99.90;;;;;;5054322;28;20263;-54
2022/11/27 08:31:24;;;;;;;15.63;9.73;;;4.20;99.90;;;;;;5054406;28;20791;-54
2022/11/27 08:33:51;;;;;;;16.27;10.77;;;4.30;99.90;;;;;;5054155;28;20600;-55
2022/11/27 08:36:19;;;;;;;15.67;11.77;;;4.30;99.90;;;;;;5053495;28;20600;-54
2022/11/27 08:38:46;;;;;;;13.13;9.80;;;4.30;99.90;;;;;;5054343;28;20296;-54
2022/11/27 08:41:13;;;;;;;13.63;10.33;;;4.40;99.90;;;;;;5054616;28;20576;-55
2022/11/27 08:43:40;;;;;;;11.57;8.20;;;4.40;99.90;;;;;;5054473;28;20225;-55
2022/11/27 08:46:08;;;;;;;16.00;10.87;;;4.50;99.90;;;;;;5054032;28;20589;-54
2022/11/27 08:48:35;;;;;;;9.80;7.70;;;4.50;99.90;;;;;;5054508;28;20561;-54
2022/11/27 08:51:06;;;;;;;13.03;10.20;;;4.60;99.90;;;;;;5054603;28;20661;-54
2022/11/27 08:53:34;;;;;;;14.23;10.40;;;4.70;99.90;;;;;;5054561;28;20248;-55
2022/11/27 08:56:06;;;;;;;12.83;8.50;;;4.80;99.90;;;;;;5053817;28;20201;-55
2022/11/27 08:58:32;;;;;;;12.03;8.67;;;5.00;99.90;;;;;;5054164;28;20240;-55
2022/11/27 09:00:59;;;;;;;11.80;8.23;;;5.10;99.90;;;;;;5054042;28;20206;-55
2022/11/27 09:03:26;;;;;;;11.43;6.97;;;5.20;99.90;;;;;;5054082;28;20225;-54
2022/11/27 09:05:53;;;;;;;10.03;6.90;;;5.30;99.90;;;;;;5052965;28;20209;-55
2022/11/27 09:08:20;;;;;;;12.50;7.10;;;5.30;99.90;;;;;;5053653;28;20377;-55
2022/11/27 09:10:48;;;;;;;11.47;7.27;;;5.40;99.90;;;;;;5053521;28;20201;-55
2022/11/27 09:13:15;;;;;;;8.80;4.77;;;5.60;99.90;;;;;;5053381;28;20320;-55
2022/11/27 09:15:42;;;;;;;4.03;3.63;;;5.70;99.90;;;;;;5053527;28;20288;-55
2022/11/27 09:18:08;;;;;;;5.50;3.80;;;5.70;99.90;;;;;;5053307;28;20254;-55
2022/11/27 09:20:35;;;;;;;4.83;3.13;;;5.80;99.90;;;;;;5053183;28;20213;-55
2022/11/27 09:23:02;;;;;;;4.67;3.20;;;5.80;99.90;;;;;;5053260;28;20237;-55
2022/11/27 09:25:29;;;;;;;4.40;3.30;;;5.90;99.90;;;;;;5053238;28;20209;-55
2022/11/27 09:27:57;;;;;;;5.50;3.10;;;6.10;99.90;;;;;;5052250;28;20225;-55
2022/11/27 09:30:24;;;;;;;5.97;3.30;;;6.40;99.90;;;;;;5053174;28;20209;-55
2022/11/27 09:32:51;;;;;;;8.33;5.53;;;6.60;99.90;;;;;;5052860;28;20233;-57
2022/11/27 09:35:18;;;;;;;6.70;5.50;;;6.80;99.90;;;;;;5053384;28;20215;-55
2022/11/27 09:37:45;;;;;;;9.70;5.90;;;6.90;99.90;;;;;;5052313;28;20248;-55
2022/11/27 09:40:15;;;;;;;9.07;6.23;;;7.00;99.90;;;;;;5052727;28;20212;-59
2022/11/27 09:42:50;;;;;;;34.17;25.77;;;7.10;99.90;;;;;;5048290;28;20240;-56
2022/11/27 09:45:18;;;;;;;9.47;6.80;;;7.30;99.90;;;;;;5032655;28;20201;-55
2022/11/27 09:47:52;;;;;;;11.13;7.37;;;7.30;99.90;;;;;;5050984;28;20308;-55
2022/11/27 09:50:23;;;;;;;6.63;5.73;;;7.40;99.90;;;;;;5051174;28;20569;-55
2022/11/27 09:52:53;;;;;;;9.63;6.90;;;7.50;99.90;;;;;;5051343;28;20229;-56
2022/11/27 09:55:25;;;;;;;9.23;6.47;;;7.60;99.90;;;;;;5051841;28;20614;-56
2022/11/27 09:57:58;;;;;;;25.37;16.03;;;7.60;99.90;;;;;;5051010;28;20213;-56
2022/11/27 10:00:26;;;;;;;12.53;8.23;;;7.80;99.90;;;;;;5051713;28;20695;-55
2022/11/27 10:02:53;;;;;;;17.30;10.63;;;8.00;99.90;;;;;;5050950;28;20716;-55
2022/11/27 10:05:23;;;;;;;7.00;3.70;;;8.10;99.90;;;;;;5051478;28;20209;-56
2022/11/27 10:08:13;;;;;;;6.37;3.50;;;8.10;99.90;;;;;;5050681;28;20600;-55
2022/11/27 10:10:47;;;;;;;3.50;2.47;;;8.20;99.90;;;;;;5051104;28;20209;-56
2022/11/27 10:13:35;;;;;;;5.20;2.47;;;8.40;99.90;;;;;;5051248;28;20225;-56
2022/11/27 10:16:09;;;;;;;3.50;2.30;;;8.60;99.90;;;;;;5050641;28;20202;-57
2022/11/27 10:18:40;;;;;;;5.70;2.00;;;8.70;99.90;;;;;;5053093;28;20216;-58
2022/11/27 10:21:14;;;;;;;6.77;2.10;;;8.60;99.90;;;;;;5052105;28;20212;-60
2022/11/27 10:23:48;;;;;;;4.00;1.90;;;8.50;99.90;;;;;;5052609;28;20244;-59
2022/11/27 10:26:18;;;;;;;5.27;1.87;;;8.50;99.90;;;;;;5051660;28;20214;-59
2022/11/27 10:28:54;;;;;;;3.03;1.87;;;8.60;99.90;;;;;;5052098;28;20243;-57
2022/11/27 10:31:32;;;;;;;2.50;1.70;;;8.60;99.90;;;;;;5052717;28;20201;-61
2022/11/27 10:34:02;;;;;;;3.60;1.70;;;8.70;99.90;;;;;;5051651;28;20719;-60
2022/11/27 10:36:36;;;;;;;5.30;2.17;;;8.70;99.90;;;;;;5050830;28;20207;-57
2022/11/27 10:39:06;;;;;;;3.03;1.60;;;8.80;99.90;;;;;;5050723;28;20205;-60
2022/11/27 10:41:39;;;;;;;3.27;2.20;;;8.60;99.90;;;;;;5051014;28;20209;-59
2022/11/27 10:44:22;;;;;;;3.77;1.90;;;8.70;99.90;;;;;;5051556;28;20225;-61
2022/11/27 10:46:53;;;;;;;4.97;2.20;;;8.70;99.90;;;;;;5050976;28;20231;-56
2022/11/27 10:49:20;;;;;;;2.13;1.53;;;8.70;99.90;;;;;;5050908;28;20209;-56
2022/11/27 10:51:46;;;;;;;2.83;1.57;;;8.60;99.90;;;;;;5050497;28;20592;-56
2022/11/27 10:54:22;;;;;;;4.77;2.00;;;8.70;99.90;;;;;;5050409;28;20304;-56
2022/11/27 10:57:14;;;;;;;2.93;2.30;;;8.90;99.90;;;;;;5050386;28;20216;-56
2022/11/27 10:59:47;;;;;;;3.30;2.00;;;9.10;99.90;;;;;;5051046;28;20225;-58
2022/11/27 11:02:30;;;;;;;3.47;2.37;;;9.30;99.90;;;;;;5050686;28;20316;-60
2022/11/27 11:04:57;;;;;;;2.80;1.50;;;9.40;99.90;;;;;;5051009;28;20346;-61
2022/11/27 11:07:26;;;;;;;5.50;3.87;;;9.50;99.90;;;;;;5050999;28;20232;-60
2022/11/27 11:09:53;;;;;;;5.57;1.47;;;9.50;99.90;;;;;;5050162;28;20209;-60
2022/11/27 11:12:22;;;;;;;2.80;1.47;;;9.50;99.90;;;;;;5051189;28;20240;-62
2022/11/27 11:14:53;;;;;;;2.83;1.60;;;9.60;99.90;;;;;;5050215;28;20208;-59
2022/11/27 11:17:26;;;;;;;1.97;1.40;;;9.70;99.90;;;;;;5050083;28;20720;-62
2022/11/27 11:19:54;;;;;;;2.13;1.80;;;9.80;99.90;;;;;;5050963;28;20220;-59
2022/11/27 11:22:21;;;;;;;3.67;1.60;;;10.00;99.90;;;;;;5050511;28;20240;-59
2022/11/27 11:24:50;;;;;;;3.10;1.90;;;10.20;99.90;;;;;;5050409;28;20205;-59
2022/11/27 11:27:21;;;;;;;4.23;1.50;;;10.30;99.90;;;;;;5049993;28;20401;-58
2022/11/27 11:29:51;;;;;;;2.70;1.80;;;10.40;99.90;;;;;;5050332;28;20743;-59
2022/11/27 11:32:25;;;;;;;2.73;1.50;;;10.60;99.90;;;;;;5050621;28;20268;-57
2022/11/27 11:34:57;;;;;;;2.97;1.40;;;10.60;99.90;;;;;;5050697;28;20209;-60
2022/11/27 11:37:26;;;;;;;1.90;1.50;;;10.60;99.90;;;;;;5049665;28;20206;-59
2022/11/27 11:39:56;;;;;;;3.83;2.03;;;10.50;99.90;;;;;;5049574;28;20693;-58
2022/11/27 11:42:26;;;;;;;2.07;1.50;;;10.40;99.90;;;;;;5050580;28;20230;-58
2022/11/27 11:44:55;;;;;;;3.77;2.10;;;10.40;99.90;;;;;;5049715;28;20665;-58
2022/11/27 11:47:25;;;;;;;3.03;1.93;;;10.30;99.90;;;;;;5049947;28;20762;-58
2022/11/27 11:49:54;;;;;;;2.10;1.60;;;10.30;99.90;;;;;;5050703;28;20214;-58
2022/11/27 11:52:40;;;;;;;2.87;1.60;;;10.20;99.90;;;;;;5053039;28;20239;-59
2022/11/27 11:55:17;;;;;;;6.33;1.80;;;10.20;99.90;;;;;;5053715;28;20208;-58
2022/11/27 11:58:09;;;;;;;2.90;1.90;;;10.30;99.90;;;;;;5053832;28;20204;-57
2022/11/27 12:00:42;;;;;;;1.97;1.53;;;10.40;99.90;;;;;;5053455;28;20217;-59
2022/11/27 12:03:35;;;;;;;3.30;1.90;;;10.40;99.90;;;;;;5053733;28;20343;-60
2022/11/27 12:06:17;;;;;;;2.07;1.83;;;10.40;99.90;;;;;;5053334;28;20205;-60
2022/11/27 12:08:58;;;;;;;3.93;1.83;;;10.40;99.90;;;;;;5054925;28;20234;-61
2022/11/27 12:11:33;;;;;;;2.83;2.03;;;10.40;99.90;;;;;;5055512;28;20206;-60
2022/11/27 12:14:10;;;;;;;4.73;2.17;;;10.50;99.90;;;;;;5054431;28;20292;-59
2022/11/27 12:16:47;;;;;;;3.97;1.90;;;10.70;99.90;;;;;;5052786;28;20263;-60
2022/11/27 12:19:39;;;;;;;3.77;1.70;;;10.70;99.90;;;;;;5053438;28;20220;-59
2022/11/27 12:22:18;;;;;;;3.50;1.87;;;10.60;99.90;;;;;;5053242;28;20312;-59
2022/11/27 12:24:57;;;;;;;3.33;1.70;;;10.60;99.90;;;;;;5053948;28;20208;-62
2022/11/27 12:27:43;;;;;;;4.43;2.10;;;10.70;99.90;;;;;;5053552;28;20228;-59
2022/11/27 12:30:15;;;;;;;3.07;1.60;;;10.60;99.90;;;;;;5052921;28;20210;-59
2022/11/27 12:33:06;;;;;;;3.00;1.67;;;10.70;99.90;;;;;;5053546;28;20463;-56
2022/11/27 12:35:34;;;;;;;3.87;1.90;;;10.70;99.90;;;;;;5054555;28;20206;-56
2022/11/27 12:38:17;;;;;;;2.13;1.50;;;10.80;99.90;;;;;;5053831;28;20301;-57
2022/11/27 12:40:56;;;;;;;5.60;2.10;;;10.80;99.90;;;;;;5054328;28;20292;-57
2022/11/27 12:43:25;;;;;;;3.30;1.60;;;10.90;99.90;;;;;;5053988;28;20226;-56
2022/11/27 12:45:58;;;;;;;1.30;1.20;;;10.90;99.90;;;;;;5053882;28;20626;-56
2022/11/27 12:48:29;;;;;;;2.73;1.60;;;11.10;99.90;;;;;;5053027;28;20299;-56
2022/11/27 12:51:00;;;;;;;2.30;1.50;;;11.10;99.90;;;;;;5054125;28;20292;-56
2022/11/27 12:53:33;;;;;;;2.20;1.70;;;11.20;99.90;;;;;;5053831;28;20245;-56
2022/11/27 12:56:10;;;;;;;2.33;1.47;;;11.30;99.90;;;;;;5054089;28;20300;-56
2022/11/27 12:58:41;;;;;;;3.60;1.80;;;11.30;99.90;;;;;;5053697;28;20255;-56